Time;durP1;ratioP1;P1;durP2;ratioP2;P2;SDS_P1;SDS_P2;PMS_P1;PMS_P2;Temp;Humidity;BMP_temperature;BMP_pressure;BME280_temperature;BME280_humidity;BME280_pressure;Samples;Min_cycle;Max_cycle;Signal;HPM_P1;HPM_P2
2023/10/02 00:05:06;;;;;;;;;;;;;;;17.62;70.45;95809.53;5113827;28;940;-56
2023/10/02 00:07:36;;;;;;;;;;;;;;;17.51;70.61;95811.72;5113757;28;1024;-56
2023/10/02 00:10:03;;;;;;;;;;;;;;;17.49;70.82;95813.78;5113516;28;1068;-56
2023/10/02 00:12:31;;;;;;;;;;;;;;;17.46;70.63;95808.72;5113208;28;1135;-56
2023/10/02 00:14:58;;;;;;;;;;;;;;;17.46;70.53;95808.72;5113549;28;1064;-56
2023/10/02 00:17:24;;;;;;;;;;;;;;;17.39;71.65;95806.97;5113181;28;1926;-56
2023/10/02 00:19:57;;;;;;;;;;;;;;;17.21;72.15;95804.66;5113687;28;1065;-56
2023/10/02 00:22:41;;;;;;;;;;;;;;;17.22;71.02;95799.03;5113585;28;1038;-55
2023/10/02 00:25:09;;;;;;;;;;;;;;;17.41;69.91;95807.59;5113519;28;1052;-56
2023/10/02 00:27:38;;;;;;;;;;;;;;;17.43;70.05;95806.38;5113601;28;1050;-56
2023/10/02 00:30:07;;;;;;;;;;;;;;;17.22;70.69;95804.44;5113254;28;989;-56
2023/10/02 00:32:34;;;;;;;;;;;;;;;17.25;70.34;95808.66;5116672;28;1006;-56
2023/10/02 00:35:02;;;;;;;;;;;;;;;17.06;71.85;95813.59;5116799;28;1044;-56
2023/10/02 00:37:43;;;;;;;;;;;;;;;16.95;72.40;95806.75;5099159;28;974;-56
2023/10/02 00:40:10;;;;;;;;;;;;;;;16.91;73.01;95810.03;5117029;28;1048;-55
2023/10/02 00:42:36;;;;;;;;;;;;;;;16.79;73.59;95798.81;5098799;28;1005;-56
2023/10/02 00:45:03;;;;;;;;;;;;;;;16.67;74.65;95802.97;5116913;28;1036;-56
2023/10/02 00:47:40;;;;;;;;;;;;;;;16.61;74.21;95801.84;5117049;28;937;-56
2023/10/02 00:50:19;;;;;;;;;;;;;;;16.73;74.48;95799.53;5116842;28;1111;-56
2023/10/02 00:53:00;;;;;;;;;;;;;;;16.57;75.43;95801.34;5116742;28;1053;-56
2023/10/02 00:55:26;;;;;;;;;;;;;;;16.43;76.85;95812.97;5116905;28;1914;-56
2023/10/02 00:57:56;;;;;;;;;;;;;;;16.16;77.98;95807.09;5116669;28;1980;-56
2023/10/02 01:00:30;;;;;;;;;;;;;;;16.20;77.48;95804.84;5096472;28;1030;-56
2023/10/02 01:03:01;;;;;;;;;;;;;;;16.24;76.39;95808.03;5096319;28;1032;-56
2023/10/02 01:05:41;;;;;;;;;;;;;;;16.21;77.33;95809.25;5096015;28;1103;-56
2023/10/02 01:08:23;;;;;;;;;;;;;;;15.99;78.18;95809.06;5096316;28;970;-56
2023/10/02 01:10:56;;;;;;;;;;;;;;;16.02;78.77;95797.06;5096183;28;976;-56
2023/10/02 01:13:29;;;;;;;;;;;;;;;15.94;79.03;95799.84;5114975;27;2541;-56
2023/10/02 01:15:55;;;;;;;;;;;;;;;15.93;79.09;95798.97;5136809;27;1990;-56
2023/10/02 01:18:21;;;;;;;;;;;;;;;15.92;79.55;95794.63;5137081;27;1008;-56
2023/10/02 01:20:48;;;;;;;;;;;;;;;15.97;79.09;95803.03;5137020;27;1044;-56
2023/10/02 01:23:16;;;;;;;;;;;;;;;15.96;78.71;95790.53;5136983;27;1047;-56
2023/10/02 01:25:46;;;;;;;;;;;;;;;15.95;78.71;95798.81;5137024;27;961;-56
2023/10/02 01:28:13;;;;;;;;;;;;;;;15.89;79.34;95804.91;5136707;27;1033;-56
2023/10/02 01:30:50;;;;;;;;;;;;;;;15.77;79.96;95805.31;5136815;27;1036;-56
2023/10/02 01:33:22;;;;;;;;;;;;;;;15.82;79.37;95815.56;5136554;27;1028;-56
2023/10/02 01:35:49;;;;;;;;;;;;;;;15.65;80.26;95814.81;5136627;27;1934;-56
2023/10/02 01:38:16;;;;;;;;;;;;;;;15.34;80.59;95802.13;5136897;27;980;-56
2023/10/02 01:40:43;;;;;;;;;;;;;;;15.23;80.95;95800.69;5136562;27;1000;-56
2023/10/02 01:43:13;;;;;;;;;;;;;;;15.36;80.47;95808.19;5135392;27;1963;-56
2023/10/02 01:45:42;;;;;;;;;;;;;;;15.50;80.01;95803.06;5136619;27;1041;-56
2023/10/02 01:48:11;;;;;;;;;;;;;;;15.54;80.20;95801.72;5136624;27;1055;-56
2023/10/02 01:50:37;;;;;;;;;;;;;;;15.51;79.26;95800.19;5136225;27;1145;-55
2023/10/02 01:53:05;;;;;;;;;;;;;;;15.40;79.90;95809.53;5117948;27;1055;-56
2023/10/02 01:55:35;;;;;;;;;;;;;;;15.38;79.94;95814.22;5136235;27;1913;-56
2023/10/02 01:58:16;;;;;;;;;;;;;;;15.30;80.70;95811.56;5135971;27;1223;-56
2023/10/02 02:00:45;;;;;;;;;;;;;;;15.22;80.61;95815.13;5136233;27;1049;-56
2023/10/02 02:03:14;;;;;;;;;;;;;;;15.30;80.75;95816.13;5135865;27;1104;-56
2023/10/02 02:05:44;;;;;;;;;;;;;;;15.35;80.48;95811.91;5135907;27;1151;-56
2023/10/02 02:08:22;;;;;;;;;;;;;;;15.05;82.25;95820.78;5135790;27;966;-56
2023/10/02 02:10:50;;;;;;;;;;;;;;;14.92;82.67;95824.81;5136151;27;961;-56
2023/10/02 02:13:16;;;;;;;;;;;;;;;15.01;82.37;95820.28;5135655;27;1088;-56
2023/10/02 02:15:47;;;;;;;;;;;;;;;15.08;81.97;95820.41;5135961;27;1987;-56
2023/10/02 02:18:14;;;;;;;;;;;;;;;15.21;80.89;95818.88;5135703;27;1195;-56
2023/10/02 02:20:58;;;;;;;;;;;;;;;15.21;80.91;95823.41;5135527;27;1036;-56
2023/10/02 02:23:26;;;;;;;;;;;;;;;15.06;81.31;95820.56;5135549;27;1028;-56
2023/10/02 02:25:53;;;;;;;;;;;;;;;14.90;82.34;95826.84;5135471;27;1283;-56
2023/10/02 02:28:19;;;;;;;;;;;;;;;15.04;80.68;95827.97;5135642;27;971;-55
2023/10/02 02:30:47;;;;;;;;;;;;;;;14.91;81.50;95833.94;5135465;27;1060;-56
2023/10/02 02:33:14;;;;;;;;;;;;;;;14.82;81.64;95827.69;5135538;27;1052;-55
2023/10/02 02:35:40;;;;;;;;;;;;;;;14.75;82.06;95823.19;5135441;27;1914;-55
2023/10/02 02:38:14;;;;;;;;;;;;;;;14.75;81.37;95825.88;5135515;27;995;-55
2023/10/02 02:40:40;;;;;;;;;;;;;;;14.91;80.21;95823.16;5135271;27;1115;-56
2023/10/02 02:43:21;;;;;;;;;;;;;;;14.89;79.89;95824.31;5135509;27;967;-56
2023/10/02 02:45:47;;;;;;;;;;;;;;;14.60;80.89;95829.22;5135120;27;952;-56
2023/10/02 02:48:16;;;;;;;;;;;;;;;14.47;81.85;95826.19;5120538;27;2639;-55
2023/10/02 02:50:42;;;;;;;;;;;;;;;14.44;81.54;95827.38;5114841;28;961;-55
2023/10/02 02:53:22;;;;;;;;;;;;;;;14.54;80.91;95827.19;5114455;28;1063;-56
2023/10/02 02:56:10;;;;;;;;;;;;;;;14.63;79.82;95826.22;5114567;28;1959;-56
2023/10/02 02:58:38;;;;;;;;;;;;;;;14.46;80.21;95829.91;5120117;27;1224;-56
2023/10/02 03:01:06;;;;;;;;;;;;;;;14.27;80.67;95830.25;5135177;27;956;-56
2023/10/02 03:03:38;;;;;;;;;;;;;;;14.20;81.23;95833.56;5134776;27;1028;-56
2023/10/02 03:06:13;;;;;;;;;;;;;;;14.21;80.72;95832.59;5135182;27;970;-56
2023/10/02 03:08:39;;;;;;;;;;;;;;;14.01;81.35;95831.22;5135047;27;1011;-56
2023/10/02 03:11:07;;;;;;;;;;;;;;;13.69;82.69;95837.34;5134897;27;1037;-56
2023/10/02 03:13:36;;;;;;;;;;;;;;;13.58;82.64;95843.88;5134444;27;1145;-56
2023/10/02 03:16:09;;;;;;;;;;;;;;;13.47;83.47;95845.84;5134513;27;1941;-56
2023/10/02 03:18:43;;;;;;;;;;;;;;;13.46;83.42;95852.22;5134769;27;1040;-56
2023/10/02 03:21:21;;;;;;;;;;;;;;;13.59;82.68;95850.94;5134865;27;961;-55
2023/10/02 03:23:48;;;;;;;;;;;;;;;13.68;82.21;95849.97;5134460;27;917;-55
2023/10/02 03:26:37;;;;;;;;;;;;;;;13.64;82.09;95853.97;5134607;27;1052;-56
2023/10/02 03:29:04;;;;;;;;;;;;;;;13.73;81.91;95844.91;5134502;27;1111;-56
2023/10/02 03:31:37;;;;;;;;;;;;;;;13.64;81.67;95854.81;5134443;27;1070;-55
2023/10/02 03:34:25;;;;;;;;;;;;;;;13.36;82.62;95851.50;5134319;27;1236;-56
2023/10/02 03:36:50;;;;;;;;;;;;;;;13.47;82.11;95859.28;5134172;27;1905;-57
2023/10/02 03:40:20;;;;;;;;;;;;;;;13.62;81.20;95853.28;5134222;27;1028;-57
2023/10/02 03:42:12;;;;;;;;;;;;;;;13.59;81.33;95856.31;5124804;28;1141;-56
2023/10/02 03:44:45;;;;;;;;;;;;;;;13.69;80.65;95854.31;5134455;28;1028;-56
2023/10/02 03:47:12;;;;;;;;;;;;;;;13.65;80.30;95852.97;5134301;28;1119;-57
2023/10/02 03:49:42;;;;;;;;;;;;;;;13.46;81.25;95862.13;5134341;28;1153;-57
2023/10/02 03:52:09;;;;;;;;;;;;;;;13.27;81.96;95865.88;5134191;28;1031;-57
2023/10/02 03:54:35;;;;;;;;;;;;;;;13.06;82.06;95867.09;5134449;28;1054;-57
2023/10/02 03:57:02;;;;;;;;;;;;;;;12.72;83.04;95860.84;5134015;28;1985;-57
2023/10/02 03:59:31;;;;;;;;;;;;;;;12.60;83.79;95866.47;5121058;28;1086;-56
2023/10/02 04:04:46;;;;;;;;;;;;;;;13.02;81.46;95862.22;5113683;28;1031;-56
2023/10/02 04:07:12;;;;;;;;;;;;;;;12.97;80.71;95853.78;5116313;28;1116;-56
2023/10/02 04:09:38;;;;;;;;;;;;;;;12.62;81.81;95861.78;5117557;28;1025;-57
2023/10/02 04:12:06;;;;;;;;;;;;;;;12.35;82.78;95868.13;5117537;28;1220;-56
2023/10/02 04:14:32;;;;;;;;;;;;;;;12.26;83.26;95871.72;5117617;28;962;-56
2023/10/02 04:19:48;;;;;;;;;;;;;;;12.46;82.05;95872.38;5117496;28;1027;-55
2023/10/02 04:22:22;;;;;;;;;;;;;;;12.54;81.48;95874.28;5117664;28;1003;-56
2023/10/02 04:24:51;;;;;;;;;;;;;;;12.14;82.62;95865.75;5117379;28;1107;-56
2023/10/02 04:27:24;;;;;;;;;;;;;;;12.06;83.53;95873.69;5117325;28;976;-56
2023/10/02 04:32:32;;;;;;;;;;;;;;;12.39;81.81;95879.38;5117017;28;1108;-55
2023/10/02 04:34:58;;;;;;;;;;;;;;;12.59;80.65;95891.59;5117008;28;1076;-56
2023/10/02 04:37:24;;;;;;;;;;;;;;;12.45;79.63;95893.00;5117126;28;1902;-55
2023/10/02 04:40:13;;;;;;;;;;;;;;;12.29;80.74;95893.72;5117190;28;1036;-55
2023/10/02 04:45:26;;;;;;;;;;;;;;;12.30;80.02;95890.00;5116910;28;1100;-55
2023/10/02 04:47:58;;;;;;;;;;;;;;;12.08;81.20;95885.09;5117121;28;1045;-54
2023/10/02 04:52:57;;;;;;;;;;;;;;;12.09;80.77;95900.22;5116905;28;1039;-54
2023/10/02 04:55:41;;;;;;;;;;;;;;;12.11;80.50;95901.72;5116844;28;1905;-54
2023/10/02 04:58:14;;;;;;;;;;;;;;;12.18;80.68;95901.09;5116983;28;1165;-54
2023/10/02 05:01:18;;;;;;;;;;;;;;;12.17;80.50;95902.97;5116936;28;950;-55
2023/10/02 05:03:27;;;;;;;;;;;;;;;11.78;80.87;95907.69;5116462;28;1669;-55
2023/10/02 05:05:54;;;;;;;;;;;;;;;11.50;82.09;95903.19;5116468;28;1043;-54
2023/10/02 05:08:21;;;;;;;;;;;;;;;11.73;81.91;95905.47;5098576;28;969;-54
2023/10/02 05:10:49;;;;;;;;;;;;;;;11.78;81.86;95916.59;5116463;28;1036;-54
2023/10/02 05:16:12;;;;;;;;;;;;;;;12.04;80.77;95926.63;5098348;27;1913;-54
2023/10/02 05:18:44;;;;;;;;;;;;;;;12.22;80.18;95921.28;5135873;27;966;-54
2023/10/02 05:21:11;;;;;;;;;;;;;;;12.00;81.28;95923.38;5137067;27;1067;-54
2023/10/02 05:23:37;;;;;;;;;;;;;;;11.96;80.96;95930.06;5137055;27;964;-54
2023/10/02 05:26:04;;;;;;;;;;;;;;;12.05;81.56;95923.78;5136732;27;1178;-54
2023/10/02 05:28:43;;;;;;;;;;;;;;;12.28;80.45;95934.06;5136686;27;1045;-54
2023/10/02 05:31:11;;;;;;;;;;;;;;;12.63;79.59;95930.53;5136632;27;1089;-54
2023/10/02 05:33:37;;;;;;;;;;;;;;;12.85;79.26;95941.78;5136608;27;1040;-54
2023/10/02 05:36:05;;;;;;;;;;;;;;;13.30;77.53;95935.41;5136439;27;1917;-54
2023/10/02 05:38:33;;;;;;;;;;;;;;;13.70;76.14;95941.13;5136761;27;1055;-54
2023/10/02 05:40:59;;;;;;;;;;;;;;;13.82;75.07;95934.50;5136426;27;910;-54
2023/10/02 05:43:31;;;;;;;;;;;;;;;13.76;76.14;95935.97;5136285;27;1181;-54
2023/10/02 05:45:57;;;;;;;;;;;;;;;13.73;76.09;95935.47;5136704;27;1000;-54
2023/10/02 05:50:53;;;;;;;;;;;;;;;14.41;73.46;95935.31;5136459;27;969;-54
2023/10/02 05:53:21;;;;;;;;;;;;;;;14.90;71.61;95931.03;5136244;27;971;-54
2023/10/02 05:56:06;;;;;;;;;;;;;;;15.00;71.32;95937.91;5117916;27;1977;-54
2023/10/02 05:58:33;;;;;;;;;;;;;;;15.26;70.71;95931.47;5131312;27;1153;-54
2023/10/02 06:01:04;;;;;;;;;;;;;;;15.17;71.25;95943.28;5115893;28;1125;-54
2023/10/02 06:03:34;;;;;;;;;;;;;;;15.14;70.63;95946.28;5115716;28;996;-54
2023/10/02 06:06:17;;;;;;;;;;;;;;;15.18;71.47;95950.34;5115750;28;970;-53
2023/10/02 06:08:48;;;;;;;;;;;;;;;15.45;69.83;95951.81;5115306;28;980;-54
2023/10/02 06:11:31;;;;;;;;;;;;;;;16.46;66.00;95958.34;5115200;28;1036;-54
2023/10/02 06:14:09;;;;;;;;;;;;;;;17.02;64.22;95958.16;5115443;28;1039;-54
2023/10/02 06:16:42;;;;;;;;;;;;;;;17.14;63.33;95955.84;5115218;28;1909;-54
2023/10/02 06:19:13;;;;;;;;;;;;;;;17.32;63.62;95960.91;5115086;28;1028;-54
2023/10/02 06:24:30;;;;;;;;;;;;;;;17.54;61.14;95948.38;5115090;28;1039;-54
2023/10/02 06:27:04;;;;;;;;;;;;;;;17.77;58.82;95956.41;5114989;28;1033;-54
2023/10/02 06:29:37;;;;;;;;;;;;;;;17.68;58.44;95947.56;5114708;28;1095;-54
2023/10/02 06:32:09;;;;;;;;;;;;;;;17.91;55.48;95960.19;5115211;28;1031;-54
2023/10/02 06:34:39;;;;;;;;;;;;;;;17.80;56.28;95953.34;5114836;28;1103;-54
2023/10/02 06:37:13;;;;;;;;;;;;;;;18.09;55.28;95959.78;5114748;28;1909;-54
2023/10/02 06:39:46;;;;;;;;;;;;;;;18.36;54.33;95960.13;5115105;28;1011;-54
2023/10/02 06:42:16;;;;;;;;;;;;;;;18.35;54.48;95962.00;5114879;28;995;-54
2023/10/02 06:44:52;;;;;;;;;;;;;;;18.73;53.84;95956.38;5114878;28;1053;-54
2023/10/02 06:47:29;;;;;;;;;;;;;;;19.06;51.95;95956.72;5114557;28;1004;-54
2023/10/02 06:50:27;;;;;;;;;;;;;;;19.13;52.22;95955.97;5114617;28;1032;-54
2023/10/02 06:52:51;;;;;;;;;;;;;;;19.15;53.19;95953.88;5114456;28;1682;-54
2023/10/02 06:55:17;;;;;;;;;;;;;;;19.51;52.34;95965.44;5114298;28;1902;-54
2023/10/02 06:57:49;;;;;;;;;;;;;;;19.31;50.46;95962.59;5114399;28;1016;-54
2023/10/02 07:00:22;;;;;;;;;;;;;;;19.39;52.54;95958.03;5133948;27;1137;-54
2023/10/02 07:02:56;;;;;;;;;;;;;;;19.73;51.19;95968.16;5135228;27;975;-54
2023/10/02 07:05:27;;;;;;;;;;;;;;;19.96;50.68;95959.72;5134766;27;1040;-55
2023/10/02 07:08:01;;;;;;;;;;;;;;;19.96;48.48;95973.31;5135046;27;973;-54
2023/10/02 07:10:41;;;;;;;;;;;;;;;19.96;49.01;95972.47;5134715;27;1195;-54
2023/10/02 07:13:18;;;;;;;;;;;;;;;20.11;49.97;95965.03;5134620;27;1223;-55
2023/10/02 07:15:45;;;;;;;;;;;;;;;20.19;48.49;95972.16;5134617;27;1906;-55
2023/10/02 07:18:12;;;;;;;;;;;;;;;20.07;45.89;95982.72;5134854;27;940;-54
2023/10/02 07:20:47;;;;;;;;;;;;;;;20.16;46.79;95975.28;5131199;27;2537;-55
2023/10/02 07:23:19;;;;;;;;;;;;;;;20.53;46.77;95976.72;5134623;27;952;-54
2023/10/02 07:25:50;;;;;;;;;;;;;;;20.73;45.63;95982.22;5134539;27;1060;-54
2023/10/02 07:28:18;;;;;;;;;;;;;;;20.87;45.09;95980.41;5134732;27;1038;-55
2023/10/02 07:30:46;;;;;;;;;;;;;;;21.14;44.63;95989.44;5134775;27;949;-54
2023/10/02 07:33:13;;;;;;;;;;;;;;;20.97;47.45;95980.00;5134319;27;1040;-54
2023/10/02 07:35:39;;;;;;;;;;;;;;;21.15;45.45;95972.09;5134620;27;1925;-55
2023/10/02 07:38:08;;;;;;;;;;;;;;;21.26;44.36;95978.78;5134471;27;993;-54
2023/10/02 07:40:48;;;;;;;;;;;;;;;21.51;44.35;95975.47;5133442;27;1023;-54
2023/10/02 07:43:20;;;;;;;;;;;;;;;21.79;43.75;95980.69;5134259;28;1024;-55
2023/10/02 07:46:32;;;;;;;;;;;;;;;21.79;42.70;95969.78;5134255;28;1110;-54
2023/10/02 07:48:35;;;;;;;;;;;;;;;21.87;43.57;95966.00;5114901;27;2623;-55
2023/10/02 07:51:01;;;;;;;;;;;;;;;22.07;43.38;95972.25;5134181;28;976;-54
2023/10/02 07:53:40;;;;;;;;;;;;;;;22.12;42.40;95977.06;5134370;28;1043;-54
2023/10/02 07:56:07;;;;;;;;;;;;;;;22.30;43.21;95971.81;5134170;28;2057;-54
2023/10/02 07:58:33;;;;;;;;;;;;;;;22.48;42.57;95973.84;5134165;28;1319;-54
2023/10/02 08:01:06;;;;;;;;;;;;;;;22.61;41.33;95971.06;5134220;28;1040;-54
2023/10/02 08:03:34;;;;;;;;;;;;;;;22.47;40.45;95976.78;5133997;28;1036;-54
2023/10/02 08:06:20;;;;;;;;;;;;;;;22.51;41.38;95972.56;5134380;28;1060;-54
2023/10/02 08:11:37;;;;;;;;;;;;;;;22.64;41.24;95967.06;5134171;27;1137;-55
2023/10/02 08:14:03;;;;;;;;;;;;;;;22.65;39.80;95981.50;5133986;28;1028;-54
2023/10/02 08:16:33;;;;;;;;;;;;;;;22.61;40.30;95981.09;5134194;28;1909;-54
2023/10/02 08:18:59;;;;;;;;;;;;;;;22.66;39.44;95978.56;5134626;28;972;-54
2023/10/02 08:21:46;;;;;;;;;;;;;;;22.83;38.18;95983.53;5134074;28;1044;-54
2023/10/02 08:24:13;;;;;;;;;;;;;;;22.71;38.55;95978.78;5134016;28;1004;-54
2023/10/02 08:26:43;;;;;;;;;;;;;;;22.79;38.59;95975.78;5134057;28;1980;-54
2023/10/02 08:29:10;;;;;;;;;;;;;;;22.92;39.74;95974.88;5134378;28;979;-54
2023/10/02 08:31:43;;;;;;;;;;;;;;;23.02;39.24;95962.66;5123858;27;2439;-54
2023/10/02 08:34:12;;;;;;;;;;;;;;;23.16;38.13;95964.25;5113623;28;957;-54
2023/10/02 08:36:41;;;;;;;;;;;;;;;23.25;37.87;95959.38;5113307;28;1987;-55
2023/10/02 08:39:08;;;;;;;;;;;;;;;23.31;39.54;95953.03;5113197;28;1059;-54
2023/10/02 08:41:43;;;;;;;;;;;;;;;23.43;39.32;95954.00;5113471;28;1029;-54
2023/10/02 08:44:13;;;;;;;;;;;;;;;23.46;37.83;95953.53;5113405;28;984;-54
2023/10/02 08:46:42;;;;;;;;;;;;;;;23.57;38.89;95958.28;5112949;28;2557;-54
2023/10/02 08:49:12;;;;;;;;;;;;;;;22.89;38.39;95947.22;5133512;27;2558;-54
2023/10/02 08:51:39;;;;;;;;;;;;;;;22.93;39.71;95940.25;5117745;27;2503;-54
2023/10/02 08:54:05;;;;;;;;;;;;;;;23.28;37.57;95948.88;5116850;28;1114;-54
2023/10/02 08:56:44;;;;;;;;;;;;;;;23.57;36.68;95949.25;5116918;28;1906;-54
2023/10/02 08:59:15;;;;;;;;;;;;;;;23.77;37.21;95944.47;5127082;27;1146;-54
2023/10/02 09:01:42;;;;;;;;;;;;;;;23.92;35.34;95952.34;5137320;27;1044;-54
2023/10/02 09:06:58;;;;;;;;;;;;;;;23.77;36.23;95938.13;5137191;27;1052;-54
2023/10/02 09:09:36;;;;;;;;;;;;;;;24.03;36.18;95938.97;5137211;27;972;-54
2023/10/02 09:12:03;;;;;;;;;;;;;;;24.24;35.98;95948.63;5137121;27;1148;-55
2023/10/02 09:17:07;;;;;;;;;;;;;;;24.18;35.32;95947.63;5136833;27;1914;-54
2023/10/02 09:19:34;;;;;;;;;;;;;;;24.15;34.33;95935.28;5137185;27;987;-54
2023/10/02 09:22:07;;;;;;;;;;;;;;;24.31;35.07;95931.06;5136798;27;1083;-54
2023/10/02 09:24:37;;;;;;;;;;;;;;;24.46;34.34;95930.69;5118152;27;2773;-55
2023/10/02 09:30:15;;;;;;;;;;;;;;;24.13;34.03;95940.13;5116491;28;969;-54
2023/10/02 09:32:47;;;;;;;;;;;;;;;24.05;35.07;95937.69;5116032;28;973;-55
2023/10/02 09:35:39;;;;;;;;;;;;;;;24.24;34.28;95938.50;5116000;28;1007;-54
2023/10/02 09:38:15;;;;;;;;;;;;;;;24.19;34.58;95935.66;5116042;28;1091;-54
2023/10/02 09:43:31;;;;;;;;;;;;;;;24.06;33.83;95939.34;5115972;28;1139;-54
2023/10/02 09:46:06;;;;;;;;;;;;;;;23.87;34.51;95935.78;5116057;28;1035;-55
2023/10/02 09:48:46;;;;;;;;;;;;;;;23.91;34.58;95927.97;5115985;28;988;-55
2023/10/02 09:51:21;;;;;;;;;;;;;;;23.92;34.85;95932.34;5115785;28;957;-54
2023/10/02 09:54:04;;;;;;;;;;;;;;;23.94;34.39;95927.50;5135237;27;2793;-55
2023/10/02 09:56:52;;;;;;;;;;;;;;;24.05;34.11;95928.66;5136031;27;1988;-54
2023/10/02 09:59:22;;;;;;;;;;;;;;;24.07;33.04;95919.16;5136147;27;1200;-54
2023/10/02 10:02:08;;;;;;;;;;;;;;;24.34;35.00;95922.44;5136285;27;997;-54
2023/10/02 10:07:46;;;;;;;;;;;;;;;24.37;34.04;95915.66;5136140;27;1034;-54
2023/10/02 10:10:29;;;;;;;;;;;;;;;24.26;34.13;95908.22;5135831;27;1036;-55
2023/10/02 10:12:55;;;;;;;;;;;;;;;24.47;34.68;95906.91;5135824;27;1091;-54
2023/10/02 10:15:31;;;;;;;;;;;;;;;24.43;34.57;95901.06;5135660;27;1869;-55
2023/10/02 10:17:58;;;;;;;;;;;;;;;24.38;34.72;95895.47;5136041;27;1044;-55
2023/10/02 10:20:26;;;;;;;;;;;;;;;24.48;34.31;95897.66;5135957;27;951;-54
2023/10/02 10:22:56;;;;;;;;;;;;;;;24.41;34.05;95895.00;5135755;27;1003;-54
2023/10/02 10:28:08;;;;;;;;;;;;;;;24.53;33.55;95884.19;5135502;27;1011;-54
2023/10/02 10:30:38;;;;;;;;;;;;;;;24.45;33.98;95885.28;5135932;27;1063;-54
2023/10/02 10:35:48;;;;;;;;;;;;;;;24.30;33.74;95879.38;5135418;27;1998;-54
2023/10/02 10:41:27;;;;;;;;;;;;;;;24.34;34.55;95875.16;5121928;27;1335;-54
2023/10/02 10:43:56;;;;;;;;;;;;;;;24.40;33.91;95876.97;5135292;27;1013;-54
2023/10/02 10:46:29;;;;;;;;;;;;;;;24.34;33.50;95881.44;5135405;27;1020;-53
2023/10/02 10:48:59;;;;;;;;;;;;;;;24.54;34.69;95874.91;5135331;27;985;-54
2023/10/02 10:51:27;;;;;;;;;;;;;;;24.46;33.98;95870.56;5135130;27;1047;-54
2023/10/02 10:54:12;;;;;;;;;;;;;;;24.50;34.26;95866.28;5135236;27;1024;-54
2023/10/02 10:56:43;;;;;;;;;;;;;;;24.49;34.16;95861.91;5135153;27;1913;-54
2023/10/02 10:59:21;;;;;;;;;;;;;;;24.26;33.63;95865.34;5124993;27;1153;-54
2023/10/02 11:02:09;;;;;;;;;;;;;;;24.17;33.25;95864.84;5114721;28;1031;-55
2023/10/02 11:04:34;;;;;;;;;;;;;;;24.19;32.15;95863.75;5114067;28;1132;-55
2023/10/02 11:07:19;;;;;;;;;;;;;;;24.11;33.88;95856.72;5114565;28;1028;-55
2023/10/02 11:10:14;;;;;;;;;;;;;;;24.14;33.16;95856.25;5114262;28;1019;-55
2023/10/02 11:12:54;;;;;;;;;;;;;;;24.20;33.09;95858.06;5114005;28;1124;-55
2023/10/02 11:18:19;;;;;;;;;;;;;;;24.02;33.14;95844.44;5092578;28;1416;-54
2023/10/02 11:20:49;;;;;;;;;;;;;;;24.13;32.77;95849.97;5114258;28;972;-53
2023/10/02 11:23:41;;;;;;;;;;;;;;;24.25;31.94;95851.94;5113958;28;1045;-56
2023/10/02 11:26:14;;;;;;;;;;;;;;;24.20;31.67;95846.31;5114291;28;1044;-55
2023/10/02 11:28:42;;;;;;;;;;;;;;;24.13;32.54;95843.66;5113905;28;1088;-54
2023/10/02 11:31:35;;;;;;;;;;;;;;;24.12;31.91;95847.47;5113921;28;1017;-54
2023/10/02 11:34:03;;;;;;;;;;;;;;;24.07;32.26;95847.31;5113989;28;1040;-54
2023/10/02 11:36:34;;;;;;;;;;;;;;;24.05;31.52;95835.78;5113743;28;1988;-54
2023/10/02 11:39:09;;;;;;;;;;;;;;;24.12;31.44;95847.47;5113829;28;1028;-54
2023/10/02 11:41:36;;;;;;;;;;;;;;;23.97;31.33;95843.22;5114158;28;1046;-53
2023/10/02 11:44:03;;;;;;;;;;;;;;;24.00;31.85;95839.22;5114074;28;1028;-54
2023/10/02 11:46:30;;;;;;;;;;;;;;;24.00;31.33;95846.56;5113817;28;1041;-54
2023/10/02 11:48:56;;;;;;;;;;;;;;;23.96;31.12;95847.03;5113806;28;978;-55
2023/10/02 11:51:28;;;;;;;;;;;;;;;23.97;31.23;95840.50;5113628;28;1024;-54
2023/10/02 11:53:55;;;;;;;;;;;;;;;24.00;31.81;95838.34;5114046;28;1032;-54
2023/10/02 11:56:21;;;;;;;;;;;;;;;24.04;32.76;95837.69;5113500;28;1913;-54
2023/10/02 11:58:47;;;;;;;;;;;;;;;24.09;31.41;95843.31;5113759;28;1212;-55
2023/10/02 12:01:15;;;;;;;;;;;;;;;24.08;31.16;95835.34;5113812;28;961;-55
2023/10/02 12:03:41;;;;;;;;;;;;;;;24.09;30.56;95848.78;5113574;28;1004;-55
2023/10/02 12:06:12;;;;;;;;;;;;;;;24.05;30.98;95846.72;5113761;28;1028;-55
2023/10/02 12:08:38;;;;;;;;;;;;;;;23.96;30.84;95844.28;5113642;28;1039;-55
2023/10/02 12:11:04;;;;;;;;;;;;;;;23.87;31.87;95842.94;5113867;28;996;-55
2023/10/02 12:13:30;;;;;;;;;;;;;;;23.84;30.93;95837.09;5109010;28;1095;-54
2023/10/02 12:15:56;;;;;;;;;;;;;;;23.86;31.59;95834.97;5113543;28;1909;-54
2023/10/02 12:18:22;;;;;;;;;;;;;;;23.84;32.29;95826.16;5113751;28;1409;-54
2023/10/02 12:20:49;;;;;;;;;;;;;;;23.75;32.96;95829.19;5113405;28;1027;-56
2023/10/02 12:23:16;;;;;;;;;;;;;;;23.72;31.07;95831.53;5113676;28;999;-56
2023/10/02 12:25:45;;;;;;;;;;;;;;;23.75;32.54;95836.50;5113633;28;1044;-55
2023/10/02 12:28:12;;;;;;;;;;;;;;;23.83;31.56;95836.25;5116109;28;1028;-56
2023/10/02 12:30:38;;;;;;;;;;;;;;;23.82;31.80;95833.75;5117446;28;967;-55
2023/10/02 12:33:04;;;;;;;;;;;;;;;23.73;31.28;95835.91;5117877;28;961;-55
2023/10/02 12:35:33;;;;;;;;;;;;;;;23.63;31.72;95830.97;5117371;28;1090;-55
2023/10/02 12:37:59;;;;;;;;;;;;;;;23.55;31.37;95825.81;5117183;28;1036;-54
2023/10/02 12:40:31;;;;;;;;;;;;;;;23.56;31.20;95830.22;5117233;27;1044;-54
2023/10/02 12:43:00;;;;;;;;;;;;;;;23.62;32.53;95823.88;5117546;28;1011;-55
2023/10/02 12:45:30;;;;;;;;;;;;;;;23.63;32.44;95820.06;5117262;28;976;-55
2023/10/02 12:47:56;;;;;;;;;;;;;;;23.51;32.95;95830.91;5116909;28;1028;-55
2023/10/02 12:50:22;;;;;;;;;;;;;;;23.64;33.43;95823.63;5117090;28;964;-55
2023/10/02 12:52:48;;;;;;;;;;;;;;;23.61;33.64;95824.91;5117020;28;996;-55
2023/10/02 12:55:15;;;;;;;;;;;;;;;23.46;33.67;95817.09;5116797;28;1008;-55
2023/10/02 12:57:41;;;;;;;;;;;;;;;23.50;33.00;95815.56;5116810;28;1914;-54
2023/10/02 13:00:16;;;;;;;;;;;;;;;23.51;32.46;95821.88;5098405;28;1211;-55
2023/10/02 13:02:42;;;;;;;;;;;;;;;23.40;32.53;95826.19;5096543;28;982;-55
2023/10/02 13:05:09;;;;;;;;;;;;;;;23.25;32.98;95818.34;5096265;28;1103;-56
2023/10/02 13:07:35;;;;;;;;;;;;;;;23.16;33.33;95819.69;5096439;28;1024;-56
2023/10/02 13:10:03;;;;;;;;;;;;;;;23.21;33.87;95828.06;5096496;28;1008;-55
2023/10/02 13:12:29;;;;;;;;;;;;;;;23.22;33.73;95821.53;5104596;28;1084;-56
2023/10/02 13:14:55;;;;;;;;;;;;;;;23.19;34.04;95822.81;5116494;28;1021;-55
2023/10/02 13:17:21;;;;;;;;;;;;;;;23.20;33.99;95818.19;5116189;28;1981;-55
2023/10/02 13:19:47;;;;;;;;;;;;;;;23.16;34.30;95817.81;5114266;28;2919;-55
2023/10/02 13:22:13;;;;;;;;;;;;;;;23.17;34.20;95821.38;5095850;28;1029;-55
2023/10/02 13:24:39;;;;;;;;;;;;;;;23.14;35.30;95813.63;5096116;28;1013;-55
2023/10/02 13:27:05;;;;;;;;;;;;;;;23.07;34.56;95818.31;5095926;28;1023;-55
2023/10/02 13:29:34;;;;;;;;;;;;;;;22.93;35.34;95809.38;5096021;28;1037;-56
2023/10/02 13:32:01;;;;;;;;;;;;;;;22.97;35.19;95813.31;5095711;28;973;-56
2023/10/02 13:34:27;;;;;;;;;;;;;;;22.85;35.66;95813.22;5095828;28;1021;-55
2023/10/02 13:36:53;;;;;;;;;;;;;;;22.87;35.61;95813.00;5095835;28;2008;-55
2023/10/02 13:39:19;;;;;;;;;;;;;;;22.91;35.87;95801.41;5094323;28;1029;-55
2023/10/02 13:41:47;;;;;;;;;;;;;;;22.89;35.57;95810.88;5095473;28;1063;-55
2023/10/02 13:44:14;;;;;;;;;;;;;;;23.02;35.97;95802.59;5095322;28;1037;-54
2023/10/02 13:46:40;;;;;;;;;;;;;;;22.98;35.84;95804.09;5095709;28;962;-55
2023/10/02 13:49:06;;;;;;;;;;;;;;;22.94;36.02;95800.16;5095384;28;1097;-55
2023/10/02 13:51:32;;;;;;;;;;;;;;;22.98;35.44;95801.38;5096423;28;2504;-55
2023/10/02 13:53:58;;;;;;;;;;;;;;;22.94;36.55;95800.97;5095575;28;1004;-56
2023/10/02 13:56:32;;;;;;;;;;;;;;;22.84;36.26;95795.22;5095068;28;1909;-53
2023/10/02 13:58:59;;;;;;;;;;;;;;;22.83;36.15;95806.34;5104101;28;1162;-53
2023/10/02 14:01:25;;;;;;;;;;;;;;;22.84;35.85;95802.53;5115631;28;1052;-55
2023/10/02 14:03:52;;;;;;;;;;;;;;;22.74;36.21;95803.84;5115510;28;914;-55
2023/10/02 14:06:19;;;;;;;;;;;;;;;22.54;36.64;95793.13;5115440;28;1110;-55
2023/10/02 14:08:46;;;;;;;;;;;;;;;22.48;37.47;95798.59;5115531;28;1060;-55
2023/10/02 14:11:16;;;;;;;;;;;;;;;22.56;37.16;95782.00;5115575;28;1036;-54
2023/10/02 14:13:42;;;;;;;;;;;;;;;22.59;37.16;95796.03;5134046;27;1199;-53